createdAt,value
2019-03-31T00:00:06.693Z,6.70
2019-03-31T00:01:07.514Z,6.87
2019-03-31T00:01:46.745Z,6.07
2019-03-31T00:02:23.989Z,6.10
2019-03-31T00:03:00.846Z,5.80
2019-03-31T00:03:39.056Z,6.70
2019-03-31T00:04:15.964Z,5.57
2019-03-31T00:04:53.370Z,6.30
2019-03-31T00:05:29.862Z,6.77
2019-03-31T00:06:07.136Z,6.50
2019-03-31T00:06:44.650Z,6.87
2019-03-31T00:07:21.252Z,6.00
2019-03-31T00:08:00.226Z,5.93
2019-03-31T00:08:37.443Z,5.80
2019-03-31T00:09:14.693Z,5.53
2019-03-31T00:09:51.231Z,7.47
2019-03-31T00:10:28.611Z,6.30
2019-03-31T00:11:08.547Z,7.10
2019-03-31T00:11:45.511Z,5.30
2019-03-31T00:12:23.604Z,6.00
2019-03-31T00:13:03.141Z,6.53
2019-03-31T00:13:40.602Z,6.90
2019-03-31T00:14:17.717Z,5.97
2019-03-31T00:14:54.295Z,5.57
2019-03-31T00:15:30.876Z,6.37
2019-03-31T00:16:08.180Z,6.40
2019-03-31T00:16:45.498Z,4.97
2019-03-31T00:17:22.160Z,7.50
2019-03-31T00:17:58.825Z,6.10
2019-03-31T00:18:36.160Z,5.70
2019-03-31T00:19:12.923Z,6.03
2019-03-31T00:19:49.649Z,6.37
2019-03-31T00:20:26.871Z,6.57
2019-03-31T00:21:03.748Z,6.80
2019-03-31T00:21:43.838Z,6.77
2019-03-31T00:22:21.105Z,6.50
2019-03-31T00:22:58.407Z,5.37
2019-03-31T00:23:35.753Z,8.53
2019-03-31T00:24:13.460Z,7.20
2019-03-31T00:24:53.296Z,6.80
2019-03-31T00:25:28.545Z,6.40
2019-03-31T00:26:07.030Z,6.23
2019-03-31T00:26:43.567Z,6.13
2019-03-31T00:27:21.395Z,6.50
2019-03-31T00:27:59.933Z,5.80
2019-03-31T00:28:36.613Z,6.47
2019-03-31T00:29:16.325Z,6.20
2019-03-31T00:29:53.268Z,6.07
2019-03-31T00:30:34.117Z,6.73
2019-03-31T00:31:21.504Z,6.20
2019-03-31T00:31:49.632Z,6.10
2019-03-31T00:32:27.941Z,6.73
2019-03-31T00:33:12.571Z,6.43
2019-03-31T00:33:50.345Z,5.27
2019-03-31T00:34:27.492Z,6.10
2019-03-31T00:35:04.694Z,6.10
2019-03-31T00:35:41.355Z,5.40
2019-03-31T00:36:27.419Z,6.53
2019-03-31T00:37:07.434Z,5.80
2019-03-31T00:37:42.569Z,5.30
2019-03-31T00:38:19.193Z,5.70
2019-03-31T00:38:55.702Z,5.20
2019-03-31T00:39:32.381Z,6.57
2019-03-31T00:40:09.718Z,5.67
2019-03-31T00:40:46.930Z,6.97
2019-03-31T00:41:23.461Z,5.57
2019-03-31T00:42:02.943Z,6.73
2019-03-31T00:42:39.879Z,6.63
2019-03-31T00:43:17.163Z,6.63
2019-03-31T00:43:54.944Z,5.70
2019-03-31T00:44:31.488Z,6.37
2019-03-31T00:45:08.929Z,6.10
2019-03-31T00:45:46.649Z,6.53
2019-03-31T00:46:23.891Z,6.57
2019-03-31T00:47:02.154Z,6.57
2019-03-31T00:47:39.802Z,5.50
2019-03-31T00:48:17.198Z,5.87
2019-03-31T00:48:54.255Z,6.07
2019-03-31T00:49:31.087Z,7.27
2019-03-31T00:50:08.424Z,6.30
2019-03-31T00:50:45.661Z,7.00
2019-03-31T00:51:22.450Z,7.10
2019-03-31T00:51:59.749Z,5.67
2019-03-31T00:52:38.670Z,5.60
2019-03-31T00:53:15.898Z,7.67
2019-03-31T00:53:52.411Z,6.67
2019-03-31T00:54:29.505Z,7.53
2019-03-31T00:55:07.071Z,5.90
2019-03-31T00:55:44.286Z,7.40
2019-03-31T00:56:21.046Z,7.23
2019-03-31T00:56:58.096Z,6.57
2019-03-31T00:57:36.910Z,5.83
2019-03-31T00:58:13.979Z,8.17
2019-03-31T00:58:50.952Z,6.77
2019-03-31T00:59:28.240Z,7.20
2019-03-31T01:00:06.390Z,6.63
2019-03-31T01:01:00.780Z,7.63
2019-03-31T01:01:43.486Z,7.93
2019-03-31T01:02:24.495Z,8.87
2019-03-31T01:03:01.047Z,10.30
2019-03-31T01:03:38.506Z,8.57
2019-03-31T01:04:18.205Z,9.10
2019-03-31T01:04:54.693Z,7.53
2019-03-31T01:05:43.870Z,8.80
2019-03-31T01:06:21.326Z,11.33
2019-03-31T01:06:58.566Z,9.03
2019-03-31T01:07:35.045Z,11.00
2019-03-31T01:08:12.092Z,11.53
2019-03-31T01:08:49.159Z,10.30
2019-03-31T01:09:32.544Z,10.50
2019-03-31T01:10:09.852Z,10.20
2019-03-31T01:10:47.718Z,10.50
2019-03-31T01:11:28.832Z,12.03
2019-03-31T01:12:07.331Z,10.43
2019-03-31T01:12:44.865Z,10.17
2019-03-31T01:13:22.296Z,8.53
2019-03-31T01:13:59.571Z,9.60
2019-03-31T01:14:36.348Z,10.60
2019-03-31T01:15:17.485Z,8.13
2019-03-31T01:15:54.958Z,9.43
2019-03-31T01:16:34.741Z,10.70
2019-03-31T01:17:14.986Z,10.47
2019-03-31T01:17:52.210Z,11.67
2019-03-31T01:18:30.688Z,12.07
2019-03-31T01:19:09.434Z,12.20
2019-03-31T01:19:46.071Z,13.00
2019-03-31T01:20:25.458Z,12.23
2019-03-31T01:21:03.350Z,11.20
2019-03-31T01:21:45.537Z,11.00
2019-03-31T01:22:23.224Z,11.00
2019-03-31T01:23:00.120Z,11.00
2019-03-31T01:23:37.692Z,8.93
2019-03-31T01:24:14.430Z,9.30
2019-03-31T01:24:51.572Z,9.17
2019-03-31T01:25:29.888Z,10.73
2019-03-31T01:26:06.698Z,9.67
2019-03-31T01:26:44.009Z,8.30
2019-03-31T01:27:24.481Z,9.60
2019-03-31T01:28:05.022Z,7.23
2019-03-31T01:28:49.643Z,7.27
2019-03-31T01:29:29.079Z,7.20
2019-03-31T01:30:06.413Z,8.10
2019-03-31T01:30:48.380Z,7.80
2019-03-31T01:31:28.482Z,7.50
2019-03-31T01:32:06.048Z,8.43
2019-03-31T01:32:45.663Z,7.80
2019-03-31T01:33:24.267Z,7.80
2019-03-31T01:34:01.521Z,7.57
2019-03-31T01:34:38.776Z,6.27
2019-03-31T01:35:15.522Z,7.00
2019-03-31T01:35:57.802Z,7.83
2019-03-31T01:36:35.179Z,7.40
2019-03-31T01:37:12.096Z,8.63
2019-03-31T01:37:51.357Z,7.50
2019-03-31T01:38:33.419Z,7.97
2019-03-31T01:39:14.728Z,7.47
2019-03-31T01:39:59.764Z,6.20
2019-03-31T01:40:36.360Z,7.23
2019-03-31T01:41:18.182Z,6.70
2019-03-31T01:41:54.715Z,6.80
2019-03-31T01:42:33.716Z,7.03
2019-03-31T01:43:13.381Z,6.80
2019-03-31T01:43:50.324Z,6.00
2019-03-31T01:44:27.480Z,7.33
2019-03-31T01:45:04.693Z,6.33
2019-03-31T01:45:42.126Z,6.43
2019-03-31T01:46:20.540Z,5.93
2019-03-31T01:46:57.721Z,6.63
2019-03-31T01:47:52.592Z,6.70
2019-03-31T01:48:29.195Z,7.17
2019-03-31T01:49:06.020Z,6.83
2019-03-31T01:49:47.464Z,6.63
2019-03-31T01:50:28.789Z,5.80
2019-03-31T01:51:11.757Z,6.60
2019-03-31T01:52:13.534Z,6.63
2019-03-31T01:53:14.418Z,6.93
2019-03-31T01:54:00.642Z,5.93
2019-03-31T01:54:38.994Z,5.53
2019-03-31T01:55:15.804Z,7.23
2019-03-31T01:55:53.151Z,6.47
2019-03-31T01:56:29.903Z,6.73
2019-03-31T01:57:10.997Z,8.10
2019-03-31T01:57:52.345Z,6.97
2019-03-31T01:58:29.397Z,9.00
2019-03-31T01:59:07.492Z,8.80
2019-03-31T01:59:44.663Z,8.80
2019-03-31T02:00:38.752Z,8.00
2019-03-31T02:01:16.320Z,7.80
2019-03-31T02:02:03.954Z,7.17
2019-03-31T02:02:37.778Z,7.97
2019-03-31T02:03:15.281Z,7.70
2019-03-31T02:03:52.981Z,8.13
2019-03-31T02:04:29.578Z,8.50
2019-03-31T02:05:06.935Z,6.80
2019-03-31T02:05:43.419Z,8.27
2019-03-31T02:06:21.479Z,8.33
2019-03-31T02:07:01.739Z,9.10
2019-03-31T02:07:40.244Z,6.87
2019-03-31T02:08:17.080Z,7.83
2019-03-31T02:08:54.386Z,6.87
2019-03-31T02:09:35.212Z,7.77
2019-03-31T02:10:13.351Z,7.07
2019-03-31T02:10:49.893Z,6.97
2019-03-31T02:11:28.957Z,6.30
2019-03-31T02:12:24.173Z,6.37
2019-03-31T02:13:03.482Z,6.00
2019-03-31T02:13:40.307Z,6.40
2019-03-31T02:14:17.159Z,6.50
2019-03-31T02:14:54.521Z,6.70
2019-03-31T02:15:31.865Z,5.90
2019-03-31T02:16:09.556Z,5.40
2019-03-31T02:16:46.977Z,6.30
2019-03-31T02:17:23.466Z,5.93
2019-03-31T02:18:00.565Z,4.87
2019-03-31T02:18:38.130Z,6.03
2019-03-31T02:19:15.313Z,5.57
2019-03-31T02:19:51.979Z,5.83
2019-03-31T02:20:28.502Z,5.83
2019-03-31T02:21:05.780Z,5.87
2019-03-31T02:21:43.096Z,5.30
2019-03-31T02:22:24.507Z,5.50
2019-03-31T02:23:01.634Z,6.30
2019-03-31T02:23:38.474Z,5.63
2019-03-31T02:24:15.267Z,4.80
2019-03-31T02:24:55.441Z,6.70
2019-03-31T02:25:33.312Z,4.67
2019-03-31T02:26:10.463Z,4.90
2019-03-31T02:26:47.675Z,3.80
2019-03-31T02:27:28.459Z,4.20
2019-03-31T02:28:05.565Z,4.57
2019-03-31T02:28:42.722Z,4.23
2019-03-31T02:29:23.300Z,5.00
2019-03-31T02:29:59.970Z,3.47
2019-03-31T02:30:36.922Z,4.10
2019-03-31T02:31:14.397Z,4.27
2019-03-31T02:31:50.860Z,4.53
2019-03-31T02:32:27.389Z,3.83
2019-03-31T02:33:04.499Z,4.30
2019-03-31T02:33:44.187Z,4.83
2019-03-31T02:34:21.173Z,5.00
2019-03-31T02:35:01.483Z,4.63
2019-03-31T02:35:39.384Z,5.10
2019-03-31T02:36:17.455Z,4.30
2019-03-31T02:36:54.742Z,5.07
2019-03-31T02:37:31.330Z,5.00
2019-03-31T02:38:11.328Z,5.07
2019-03-31T02:38:48.625Z,5.00
2019-03-31T02:39:27.257Z,5.47
2019-03-31T02:40:04.327Z,4.67
2019-03-31T02:40:41.731Z,4.80
2019-03-31T02:41:18.758Z,4.67
2019-03-31T02:41:56.101Z,5.00
2019-03-31T02:42:33.295Z,4.60
2019-03-31T02:43:10.077Z,4.20
2019-03-31T02:43:47.098Z,4.97
2019-03-31T02:44:28.358Z,4.90
2019-03-31T02:45:08.337Z,4.73
2019-03-31T02:45:45.186Z,4.73
2019-03-31T02:46:21.894Z,5.27
2019-03-31T02:46:59.095Z,5.50
2019-03-31T02:47:37.998Z,4.40
2019-03-31T02:48:15.551Z,4.53
2019-03-31T02:48:52.583Z,4.73
2019-03-31T02:49:29.746Z,5.40
2019-03-31T02:50:06.942Z,4.80
2019-03-31T02:50:49.272Z,5.90
2019-03-31T02:51:26.484Z,5.53
2019-03-31T02:52:02.987Z,4.70
2019-03-31T02:52:44.033Z,5.00
2019-03-31T02:53:21.368Z,5.40
2019-03-31T02:53:59.395Z,5.20
2019-03-31T02:54:37.021Z,4.80
2019-03-31T02:55:14.368Z,4.73
2019-03-31T02:55:51.114Z,4.57
2019-03-31T02:56:28.312Z,4.87
2019-03-31T02:57:07.684Z,5.67
2019-03-31T02:57:45.965Z,5.13
2019-03-31T02:58:24.070Z,5.17
2019-03-31T02:59:00.722Z,5.60
2019-03-31T02:59:38.457Z,4.77
2019-03-31T03:00:15.591Z,4.97
2019-03-31T03:00:52.452Z,5.00
2019-03-31T03:01:31.786Z,5.30
2019-03-31T03:02:11.576Z,4.40
2019-03-31T03:02:48.863Z,4.30
2019-03-31T03:03:25.880Z,4.87
2019-03-31T03:04:07.699Z,6.40
2019-03-31T03:04:46.354Z,5.67
2019-03-31T03:05:24.511Z,4.63
2019-03-31T03:06:03.831Z,4.50
2019-03-31T03:06:42.253Z,4.50
2019-03-31T03:07:19.503Z,4.33
2019-03-31T03:07:56.288Z,4.53
2019-03-31T03:08:36.342Z,4.63
2019-03-31T03:09:13.884Z,5.37
2019-03-31T03:09:54.508Z,5.00
2019-03-31T03:10:32.695Z,4.57
2019-03-31T03:11:11.252Z,5.40
2019-03-31T03:11:49.554Z,5.30
2019-03-31T03:12:33.650Z,5.33
2019-03-31T03:13:11.838Z,5.97
2019-03-31T03:13:52.330Z,4.63
2019-03-31T03:14:29.958Z,4.60
2019-03-31T03:15:10.334Z,5.43
2019-03-31T03:16:19.094Z,5.20
2019-03-31T03:16:55.742Z,4.10
2019-03-31T03:17:33.714Z,5.10
2019-03-31T03:18:10.981Z,4.40
2019-03-31T03:18:49.940Z,5.13
2019-03-31T03:19:30.002Z,5.60
2019-03-31T03:20:13.984Z,5.17
2019-03-31T03:20:51.533Z,5.03
2019-03-31T03:21:29.716Z,5.07
2019-03-31T03:22:06.994Z,4.47
2019-03-31T03:22:43.655Z,4.63
2019-03-31T03:23:21.067Z,4.50
2019-03-31T03:23:58.431Z,3.73
2019-03-31T03:24:41.532Z,4.73
2019-03-31T03:25:21.398Z,4.40
2019-03-31T03:25:59.590Z,3.63
2019-03-31T03:26:37.114Z,4.73
2019-03-31T03:27:13.944Z,4.57
2019-03-31T03:27:51.816Z,4.43
2019-03-31T03:28:35.781Z,4.37
2019-03-31T03:29:12.907Z,5.10
2019-03-31T03:29:51.222Z,4.33
2019-03-31T03:30:28.780Z,4.03
2019-03-31T03:31:14.531Z,4.30
2019-03-31T03:31:44.610Z,4.10
2019-03-31T03:32:21.189Z,4.20
2019-03-31T03:33:14.941Z,4.60
2019-03-31T03:33:39.794Z,4.20
2019-03-31T03:34:16.262Z,5.27
2019-03-31T03:34:52.871Z,3.97
2019-03-31T03:35:30.367Z,4.00
2019-03-31T03:36:12.519Z,4.20
2019-03-31T03:36:49.356Z,4.60
2019-03-31T03:37:26.011Z,5.30
2019-03-31T03:38:03.008Z,4.90
2019-03-31T03:38:39.720Z,4.27
2019-03-31T03:39:17.483Z,4.67
2019-03-31T03:39:55.484Z,5.20
2019-03-31T03:40:32.607Z,4.63
2019-03-31T03:41:10.319Z,4.57
2019-03-31T03:41:47.262Z,4.10
2019-03-31T03:42:23.789Z,4.90
2019-03-31T03:43:00.730Z,4.53
2019-03-31T03:43:54.196Z,5.07
2019-03-31T03:44:16.380Z,4.23
2019-03-31T03:44:53.170Z,4.63
2019-03-31T03:45:31.549Z,4.90
2019-03-31T03:46:08.635Z,4.80
2019-03-31T03:46:45.303Z,5.40
2019-03-31T03:47:21.906Z,4.73
2019-03-31T03:47:58.512Z,4.33
2019-03-31T03:48:35.679Z,4.80
2019-03-31T03:49:12.902Z,4.77
2019-03-31T03:49:49.420Z,4.53
2019-03-31T03:50:25.916Z,5.00
2019-03-31T03:51:03.063Z,4.67
2019-03-31T03:51:40.294Z,4.50
2019-03-31T03:52:20.480Z,5.37
2019-03-31T03:52:57.027Z,4.70
2019-03-31T03:53:33.697Z,4.27
2019-03-31T03:54:11.602Z,4.10
2019-03-31T03:54:48.245Z,4.60
2019-03-31T03:55:24.804Z,4.30
2019-03-31T03:56:02.609Z,4.10
2019-03-31T03:56:39.246Z,3.70
2019-03-31T03:57:17.193Z,4.20
2019-03-31T03:57:54.703Z,4.17
2019-03-31T03:58:31.937Z,3.67
2019-03-31T03:59:08.499Z,4.40
2019-03-31T03:59:45.196Z,4.50
2019-03-31T04:00:22.333Z,4.90
2019-03-31T04:01:33.050Z,3.87
2019-03-31T04:02:09.668Z,4.90
2019-03-31T04:02:47.869Z,4.03
2019-03-31T04:03:30.715Z,4.47
2019-03-31T04:04:03.614Z,4.50
2019-03-31T04:04:40.765Z,4.90
2019-03-31T04:05:19.088Z,4.10
2019-03-31T04:05:55.880Z,4.20
2019-03-31T04:06:33.203Z,3.83
2019-03-31T04:07:12.654Z,4.83
2019-03-31T04:07:58.505Z,4.13
2019-03-31T04:08:35.319Z,4.70
2019-03-31T04:09:12.764Z,4.10
2019-03-31T04:09:51.256Z,4.37
2019-03-31T04:11:15.405Z,3.60
2019-03-31T04:11:53.628Z,4.63
2019-03-31T04:12:33.494Z,4.27
2019-03-31T04:13:10.114Z,3.77
2019-03-31T04:13:46.788Z,4.17
2019-03-31T04:14:23.852Z,4.60
2019-03-31T04:15:00.605Z,5.03
2019-03-31T04:15:40.415Z,5.13
2019-03-31T04:16:18.552Z,3.63
2019-03-31T04:16:55.599Z,4.50
2019-03-31T04:17:32.751Z,4.53
2019-03-31T04:18:12.136Z,4.63
2019-03-31T04:18:48.734Z,3.40
2019-03-31T04:19:25.899Z,4.13
2019-03-31T04:20:19.561Z,4.03
2019-03-31T04:20:56.098Z,3.60
2019-03-31T04:21:33.239Z,3.87
2019-03-31T04:22:10.159Z,4.20
2019-03-31T04:22:49.698Z,4.40
2019-03-31T04:23:26.622Z,4.40
2019-03-31T04:24:03.702Z,5.30
2019-03-31T04:24:40.669Z,4.60
2019-03-31T04:25:17.537Z,4.60
2019-03-31T04:25:54.942Z,5.17
2019-03-31T04:26:32.406Z,4.43
2019-03-31T04:27:09.691Z,4.47
2019-03-31T04:27:49.408Z,5.33
2019-03-31T04:28:26.277Z,4.70
2019-03-31T04:29:03.518Z,4.30
2019-03-31T04:29:40.762Z,4.70
2019-03-31T04:30:19.670Z,4.80
2019-03-31T04:30:57.036Z,3.97
2019-03-31T04:31:53.560Z,4.70
2019-03-31T04:32:30.070Z,4.50
2019-03-31T04:33:07.031Z,4.37
2019-03-31T04:33:53.237Z,4.87
2019-03-31T04:34:30.893Z,5.10
2019-03-31T04:35:09.794Z,3.80
2019-03-31T04:35:46.660Z,4.03
2019-03-31T04:36:23.681Z,5.17
2019-03-31T04:37:00.125Z,3.87
2019-03-31T04:37:36.728Z,4.13
2019-03-31T04:38:13.783Z,4.00
2019-03-31T04:38:50.574Z,4.87
2019-03-31T04:39:27.953Z,5.20
2019-03-31T04:40:09.411Z,3.90
2019-03-31T04:40:46.437Z,4.17
2019-03-31T04:41:23.056Z,3.80
2019-03-31T04:41:59.721Z,4.80
2019-03-31T04:42:37.804Z,4.57
2019-03-31T04:43:18.241Z,4.07
2019-03-31T04:43:58.214Z,3.60
2019-03-31T04:44:34.885Z,3.70
2019-03-31T04:45:22.763Z,3.60
2019-03-31T04:45:59.777Z,3.80
2019-03-31T04:46:39.955Z,3.93
2019-03-31T04:47:20.257Z,4.10
2019-03-31T04:47:56.782Z,3.77
2019-03-31T04:48:33.984Z,3.57
2019-03-31T04:49:17.970Z,3.37
2019-03-31T04:49:56.127Z,3.90
2019-03-31T04:50:33.852Z,3.63
2019-03-31T04:51:15.345Z,4.03
2019-03-31T04:51:53.037Z,3.70
2019-03-31T04:52:30.940Z,3.37
2019-03-31T04:53:07.924Z,3.27
2019-03-31T04:53:45.601Z,3.03
2019-03-31T04:54:22.061Z,3.43
2019-03-31T04:54:58.821Z,3.27
2019-03-31T04:55:37.382Z,3.20
2019-03-31T04:56:13.871Z,3.40
2019-03-31T04:56:50.497Z,2.73
2019-03-31T04:57:27.658Z,3.70
2019-03-31T04:58:04.580Z,3.40
2019-03-31T04:58:45.732Z,3.10
2019-03-31T04:59:28.733Z,3.50
2019-03-31T05:00:06.036Z,3.90
2019-03-31T05:00:46.560Z,3.80
2019-03-31T05:01:23.369Z,3.60
2019-03-31T05:02:00.440Z,3.30
2019-03-31T05:02:37.343Z,3.20
2019-03-31T05:03:14.649Z,3.63
2019-03-31T05:04:04.649Z,3.43
2019-03-31T05:04:32.846Z,3.30
2019-03-31T05:05:09.773Z,3.37
2019-03-31T05:05:46.739Z,3.53
2019-03-31T05:06:25.188Z,3.40
2019-03-31T05:07:02.973Z,3.53
2019-03-31T05:07:43.212Z,3.20
2019-03-31T05:08:20.542Z,3.23
2019-03-31T05:08:57.658Z,3.23
2019-03-31T05:09:35.645Z,3.30
2019-03-31T05:10:12.327Z,3.43
2019-03-31T05:10:50.414Z,3.57
2019-03-31T05:11:27.675Z,3.13
2019-03-31T05:12:05.209Z,4.13
2019-03-31T05:12:41.922Z,3.97
2019-03-31T05:13:18.876Z,3.53
2019-03-31T05:13:57.278Z,3.33
2019-03-31T05:14:33.708Z,4.00
2019-03-31T05:15:10.499Z,3.47
2019-03-31T05:15:48.668Z,3.67
2019-03-31T05:16:25.154Z,3.83
2019-03-31T05:17:01.802Z,3.57
2019-03-31T05:17:40.929Z,3.63
2019-03-31T05:18:18.194Z,3.60
2019-03-31T05:18:58.173Z,3.73
2019-03-31T05:19:34.955Z,3.50
2019-03-31T05:20:12.436Z,3.67
2019-03-31T05:20:48.853Z,4.17
2019-03-31T05:21:25.428Z,3.53
2019-03-31T05:22:01.898Z,3.97
2019-03-31T05:22:38.909Z,3.50
2019-03-31T05:23:18.918Z,3.60
2019-03-31T05:23:56.129Z,4.33
2019-03-31T05:24:43.693Z,3.67
2019-03-31T05:25:20.705Z,3.47
2019-03-31T05:25:57.855Z,3.90
2019-03-31T05:26:34.578Z,3.73
2019-03-31T05:27:11.477Z,4.43
2019-03-31T05:27:48.424Z,3.83
2019-03-31T05:28:30.351Z,3.65
2019-03-31T05:29:07.621Z,3.43
2019-03-31T05:29:44.112Z,4.07
2019-03-31T05:30:23.585Z,4.30
2019-03-31T05:31:00.753Z,4.40
2019-03-31T05:31:37.308Z,3.60
2019-03-31T05:32:14.283Z,3.93
2019-03-31T05:32:55.028Z,4.13
2019-03-31T05:33:31.873Z,4.90
2019-03-31T05:34:18.938Z,3.47
2019-03-31T05:34:50.135Z,3.90
2019-03-31T05:35:29.009Z,3.43
2019-03-31T05:36:05.496Z,3.23
2019-03-31T05:36:42.461Z,4.20
2019-03-31T05:37:19.875Z,4.20
2019-03-31T05:37:59.692Z,4.40
2019-03-31T05:38:36.520Z,3.50
2019-03-31T05:39:12.968Z,3.80
2019-03-31T05:39:51.874Z,4.17
2019-03-31T05:40:30.899Z,4.13
2019-03-31T05:41:08.031Z,3.93
2019-03-31T05:41:45.047Z,4.27
2019-03-31T05:42:24.853Z,3.87
2019-03-31T05:43:01.991Z,3.10
2019-03-31T05:43:38.933Z,4.60
2019-03-31T05:44:17.414Z,3.63
2019-03-31T05:44:54.832Z,4.07
2019-03-31T05:45:31.459Z,4.53
2019-03-31T05:46:13.514Z,4.30
2019-03-31T05:46:51.222Z,3.57
2019-03-31T05:47:29.421Z,3.53
2019-03-31T05:48:06.521Z,4.67
2019-03-31T05:48:46.170Z,4.50
2019-03-31T05:49:41.533Z,4.50
2019-03-31T05:50:23.275Z,4.30
2019-03-31T05:51:01.918Z,4.90
2019-03-31T05:51:39.892Z,3.70
2019-03-31T05:52:37.900Z,4.30
2019-03-31T05:53:14.436Z,4.27
2019-03-31T05:53:53.820Z,5.07
2019-03-31T05:54:33.321Z,5.27
2019-03-31T05:55:10.769Z,4.80
2019-03-31T05:55:47.862Z,4.57
2019-03-31T05:56:28.964Z,4.47
2019-03-31T05:57:05.728Z,4.77
2019-03-31T05:57:43.413Z,4.90
2019-03-31T05:58:20.810Z,4.50
2019-03-31T05:58:57.269Z,4.83
2019-03-31T05:59:34.451Z,4.87
2019-03-31T06:00:11.690Z,4.63
2019-03-31T06:00:49.916Z,4.73
2019-03-31T06:01:26.397Z,4.53
2019-03-31T06:02:03.301Z,4.50
2019-03-31T06:02:40.722Z,4.60
2019-03-31T06:03:17.331Z,3.90
2019-03-31T06:03:54.898Z,3.90
2019-03-31T06:04:33.464Z,4.47
2019-03-31T06:05:13.722Z,4.03
2019-03-31T06:05:51.816Z,4.20
2019-03-31T06:06:28.348Z,4.13
2019-03-31T06:07:05.669Z,4.10
2019-03-31T06:07:48.885Z,4.07
2019-03-31T06:08:28.265Z,4.33
2019-03-31T06:09:08.588Z,4.85
2019-03-31T06:09:45.468Z,4.07
2019-03-31T06:10:22.991Z,3.90
2019-03-31T06:11:00.342Z,4.23
2019-03-31T06:11:37.050Z,4.33
2019-03-31T06:12:14.040Z,4.50
2019-03-31T06:12:55.473Z,3.83
2019-03-31T06:13:32.890Z,4.30
2019-03-31T06:14:12.538Z,4.10
2019-03-31T06:14:49.055Z,4.00
2019-03-31T06:15:25.612Z,4.20
2019-03-31T06:16:03.583Z,5.47
2019-03-31T06:16:41.017Z,4.87
2019-03-31T06:17:17.468Z,4.73
2019-03-31T06:18:00.241Z,4.73
2019-03-31T06:18:36.999Z,4.53
2019-03-31T06:19:14.132Z,4.47
2019-03-31T06:19:51.246Z,4.30
2019-03-31T06:20:29.160Z,3.67
2019-03-31T06:21:05.933Z,4.60
2019-03-31T06:21:43.369Z,3.90
2019-03-31T06:22:23.422Z,5.33
2019-03-31T06:23:01.354Z,4.50
2019-03-31T06:23:38.555Z,6.03
2019-03-31T06:24:17.926Z,4.70
2019-03-31T06:24:54.474Z,5.03
2019-03-31T06:25:31.787Z,4.40
2019-03-31T06:26:08.966Z,3.80
2019-03-31T06:26:49.448Z,3.50
2019-03-31T06:27:28.561Z,4.27
2019-03-31T06:28:06.024Z,4.60
2019-03-31T06:28:50.362Z,4.67
2019-03-31T06:29:27.142Z,4.43
2019-03-31T06:30:03.744Z,4.00
2019-03-31T06:30:41.234Z,5.00
2019-03-31T06:31:17.761Z,4.10
2019-03-31T06:31:55.709Z,3.73
2019-03-31T06:32:35.878Z,4.13
2019-03-31T06:33:13.176Z,3.97
2019-03-31T06:33:52.242Z,4.15
2019-03-31T06:34:30.432Z,4.20
2019-03-31T06:35:07.220Z,4.13
2019-03-31T06:35:44.492Z,3.50
2019-03-31T06:36:21.026Z,4.43
2019-03-31T06:36:59.429Z,4.70
2019-03-31T06:37:37.472Z,3.90
2019-03-31T06:38:14.553Z,3.93
2019-03-31T06:38:55.001Z,4.93
2019-03-31T06:39:34.209Z,3.80
2019-03-31T06:40:11.687Z,4.03
2019-03-31T06:40:58.967Z,3.80
2019-03-31T06:41:37.001Z,3.20
2019-03-31T06:42:18.587Z,4.23
2019-03-31T06:42:56.550Z,3.60
2019-03-31T06:43:33.645Z,4.40
2019-03-31T06:44:10.207Z,4.07
2019-03-31T06:44:52.547Z,4.73
2019-03-31T06:45:30.349Z,3.80
2019-03-31T06:46:07.452Z,4.20
2019-03-31T06:46:43.985Z,3.67
2019-03-31T06:47:20.649Z,3.63
2019-03-31T06:47:57.640Z,3.63
2019-03-31T06:48:34.981Z,3.80
2019-03-31T06:49:12.439Z,4.50
2019-03-31T06:49:49.171Z,3.80
2019-03-31T06:50:26.198Z,4.07
2019-03-31T06:51:03.516Z,3.83
2019-03-31T06:51:40.190Z,3.50
2019-03-31T06:52:17.267Z,3.60
2019-03-31T06:52:57.929Z,3.77
2019-03-31T06:53:35.241Z,4.00
2019-03-31T06:54:12.686Z,3.80
2019-03-31T06:54:53.859Z,4.10
2019-03-31T06:55:30.818Z,3.20
2019-03-31T06:56:13.972Z,3.70
2019-03-31T06:56:51.269Z,4.00
2019-03-31T06:57:28.184Z,4.27
2019-03-31T06:58:05.254Z,4.27
2019-03-31T06:58:44.842Z,3.70
2019-03-31T06:59:21.412Z,4.47
2019-03-31T06:59:58.088Z,3.83
2019-03-31T07:00:35.355Z,4.70
2019-03-31T07:01:11.857Z,3.73
2019-03-31T07:01:49.257Z,4.60
2019-03-31T07:02:27.159Z,4.77
2019-03-31T07:03:04.230Z,4.57
2019-03-31T07:03:40.725Z,3.87
2019-03-31T07:04:18.103Z,3.87
2019-03-31T07:05:00.987Z,3.90
2019-03-31T07:05:34.313Z,4.70
2019-03-31T07:06:13.359Z,3.93
2019-03-31T07:06:51.235Z,3.13
2019-03-31T07:07:28.259Z,3.80
2019-03-31T07:08:09.208Z,4.30
2019-03-31T07:08:48.737Z,4.60
2019-03-31T07:09:27.366Z,3.30
2019-03-31T07:10:04.641Z,4.10
2019-03-31T07:10:41.340Z,4.20
2019-03-31T07:11:18.550Z,4.10
2019-03-31T07:11:55.829Z,4.67
2019-03-31T07:12:43.402Z,4.50
2019-03-31T07:13:21.319Z,3.43
2019-03-31T07:13:59.495Z,4.50
2019-03-31T07:14:37.466Z,4.23
2019-03-31T07:15:14.300Z,4.37
2019-03-31T07:15:50.818Z,4.80
2019-03-31T07:16:28.096Z,3.93
2019-03-31T07:17:05.670Z,4.17
2019-03-31T07:17:44.341Z,3.83
2019-03-31T07:18:20.823Z,4.30
2019-03-31T07:18:57.783Z,4.37
2019-03-31T07:19:35.064Z,4.53
2019-03-31T07:20:13.319Z,4.10
2019-03-31T07:21:00.853Z,4.37
2019-03-31T07:21:41.415Z,3.50
2019-03-31T07:22:18.468Z,4.27
2019-03-31T07:22:55.975Z,4.13
2019-03-31T07:23:39.496Z,4.27
2019-03-31T07:24:16.275Z,4.33
2019-03-31T07:24:54.955Z,4.00
2019-03-31T07:25:31.624Z,3.70
2019-03-31T07:26:10.998Z,3.30
2019-03-31T07:26:49.172Z,4.20
2019-03-31T07:27:26.960Z,4.27
2019-03-31T07:28:03.641Z,4.30
2019-03-31T07:28:47.052Z,4.57
2019-03-31T07:29:23.647Z,4.53
2019-03-31T07:30:01.037Z,4.37
2019-03-31T07:30:40.847Z,3.80
2019-03-31T07:31:18.251Z,4.00
2019-03-31T07:31:55.312Z,4.47
2019-03-31T07:32:32.052Z,4.70
2019-03-31T07:33:11.972Z,4.63
2019-03-31T07:33:50.126Z,4.77
2019-03-31T07:34:27.179Z,3.80
2019-03-31T07:35:17.595Z,4.07
2019-03-31T07:35:43.018Z,3.80
2019-03-31T07:36:21.996Z,3.20
2019-03-31T07:36:58.821Z,3.67
2019-03-31T07:37:46.628Z,4.03
2019-03-31T07:38:15.257Z,3.90
2019-03-31T07:38:51.969Z,3.60
2019-03-31T07:39:29.569Z,3.97
2019-03-31T07:40:08.044Z,4.40
2019-03-31T07:40:45.004Z,4.33
2019-03-31T07:41:23.214Z,4.30
2019-03-31T07:42:05.062Z,4.20
2019-03-31T07:42:43.202Z,4.30
2019-03-31T07:43:20.479Z,3.63
2019-03-31T07:43:57.515Z,4.87
2019-03-31T07:44:35.393Z,4.10
2019-03-31T07:45:13.365Z,3.80
2019-03-31T07:45:51.687Z,4.40
2019-03-31T07:46:29.894Z,3.87
2019-03-31T07:47:07.288Z,4.13
2019-03-31T07:47:43.979Z,3.60
2019-03-31T07:48:20.706Z,3.67
2019-03-31T07:48:57.941Z,3.70
2019-03-31T07:49:34.568Z,3.60
2019-03-31T07:50:11.727Z,3.97
2019-03-31T07:50:50.412Z,3.87
2019-03-31T07:51:30.627Z,4.20
2019-03-31T07:52:07.137Z,4.40
2019-03-31T07:52:43.886Z,4.00
2019-03-31T07:53:20.420Z,3.60
2019-03-31T07:53:57.690Z,3.77
2019-03-31T07:54:43.641Z,3.53
2019-03-31T07:55:20.934Z,3.87
2019-03-31T07:55:57.450Z,3.73
2019-03-31T07:56:34.276Z,3.87
2019-03-31T07:57:10.984Z,3.87
2019-03-31T07:57:47.534Z,4.10
2019-03-31T07:58:26.645Z,3.43
2019-03-31T07:59:03.763Z,4.00
2019-03-31T07:59:41.045Z,3.90
2019-03-31T08:00:19.558Z,4.03
2019-03-31T08:00:57.984Z,4.00
2019-03-31T08:01:35.056Z,3.60
2019-03-31T08:02:12.125Z,4.20
2019-03-31T08:02:50.516Z,3.53
2019-03-31T08:03:27.147Z,3.83
2019-03-31T08:04:03.818Z,3.83
2019-03-31T08:04:41.263Z,4.00
2019-03-31T08:05:32.058Z,3.70
2019-03-31T08:06:00.566Z,3.97
2019-03-31T08:06:38.839Z,3.57
2019-03-31T08:07:15.360Z,4.03
2019-03-31T08:07:52.334Z,4.10
2019-03-31T08:08:29.600Z,3.73
2019-03-31T08:09:07.752Z,4.00
2019-03-31T08:09:45.118Z,3.70
2019-03-31T08:10:22.503Z,3.80
2019-03-31T08:11:04.644Z,3.90
2019-03-31T08:11:42.153Z,3.90
2019-03-31T08:12:18.625Z,3.20
2019-03-31T08:12:55.109Z,3.70
2019-03-31T08:13:37.872Z,3.53
2019-03-31T08:14:14.337Z,3.30
2019-03-31T08:14:52.403Z,3.60
2019-03-31T08:15:29.350Z,3.80
2019-03-31T08:16:06.013Z,4.37
2019-03-31T08:16:44.572Z,3.77
2019-03-31T08:17:24.415Z,3.70
2019-03-31T08:18:01.955Z,3.20
2019-03-31T08:18:39.143Z,3.40
2019-03-31T08:19:15.819Z,4.00
2019-03-31T08:19:53.717Z,4.40
2019-03-31T08:20:30.216Z,3.87
2019-03-31T08:21:06.832Z,3.47
2019-03-31T08:21:44.818Z,3.43
2019-03-31T08:22:22.026Z,3.83
2019-03-31T08:22:58.878Z,4.13
2019-03-31T08:23:36.518Z,3.83
2019-03-31T08:24:13.434Z,3.87
2019-03-31T08:24:50.741Z,3.93
2019-03-31T08:25:28.521Z,3.63
2019-03-31T08:26:05.212Z,3.20
2019-03-31T08:26:41.969Z,4.10
2019-03-31T08:27:20.035Z,3.40
2019-03-31T08:28:00.464Z,4.00
2019-03-31T08:28:37.181Z,3.50
2019-03-31T08:29:16.488Z,3.63
2019-03-31T08:30:00.356Z,2.95
2019-03-31T08:30:32.460Z,3.47
2019-03-31T08:31:09.628Z,3.87